createdAt,value
2023-08-03T00:01:29.220Z,66.00
2023-08-03T00:03:58.419Z,66.31
2023-08-03T00:06:27.182Z,66.58
2023-08-03T00:08:55.177Z,66.54
2023-08-03T00:11:23.264Z,66.34
2023-08-03T00:13:52.487Z,66.50
2023-08-03T00:16:20.284Z,66.61
2023-08-03T00:18:48.662Z,66.95
2023-08-03T00:21:34.855Z,66.56
2023-08-03T00:24:03.545Z,66.77
2023-08-03T00:26:31.330Z,67.17
2023-08-03T00:29:00.458Z,67.03
2023-08-03T00:31:29.144Z,66.98
2023-08-03T00:33:57.958Z,66.91
2023-08-03T00:36:26.158Z,67.27
2023-08-03T00:38:53.893Z,67.16
2023-08-03T00:41:21.727Z,67.62
2023-08-03T00:43:49.653Z,67.33
2023-08-03T00:46:19.956Z,67.73
2023-08-03T00:48:47.878Z,67.67
2023-08-03T00:51:15.848Z,67.74
2023-08-03T00:53:46.986Z,67.56
2023-08-03T00:56:14.743Z,68.14
2023-08-03T00:58:43.126Z,67.92
2023-08-03T01:01:11.310Z,68.12
2023-08-03T01:03:40.443Z,67.86
2023-08-03T01:06:08.354Z,68.11
2023-08-03T01:08:36.241Z,68.25
2023-08-03T01:11:04.005Z,68.33
2023-08-03T01:13:31.859Z,68.66
2023-08-03T01:16:01.086Z,68.39
2023-08-03T01:18:29.014Z,68.56
2023-08-03T01:20:59.794Z,68.61
2023-08-03T01:23:29.387Z,68.72
2023-08-03T01:25:57.112Z,68.86
2023-08-03T01:28:24.894Z,69.07
2023-08-03T01:30:52.800Z,68.99
2023-08-03T01:33:21.476Z,68.85
2023-08-03T01:35:51.752Z,69.22
2023-08-03T01:38:19.503Z,69.12
2023-08-03T01:40:48.729Z,69.33
2023-08-03T01:43:17.065Z,69.39
2023-08-03T01:45:45.012Z,69.41
2023-08-03T01:48:31.162Z,69.65
2023-08-03T01:50:58.934Z,69.39
2023-08-03T01:53:27.018Z,69.61
2023-08-03T01:55:56.124Z,69.75
2023-08-03T01:58:24.607Z,70.05
2023-08-03T02:00:52.454Z,69.88
2023-08-03T02:03:20.284Z,70.32
2023-08-03T02:05:48.047Z,69.97
2023-08-03T02:08:15.835Z,70.33
2023-08-03T02:10:43.707Z,70.19
2023-08-03T02:13:12.795Z,70.64
2023-08-03T02:15:42.107Z,70.38
2023-08-03T02:18:09.939Z,70.88
2023-08-03T02:20:37.762Z,70.64
2023-08-03T02:23:05.584Z,71.19
2023-08-03T02:25:33.380Z,71.17
2023-08-03T02:28:21.207Z,70.93
2023-08-03T02:30:49.861Z,70.92
2023-08-03T02:33:17.831Z,71.18
2023-08-03T02:35:45.673Z,71.42
2023-08-03T02:38:31.956Z,71.66
2023-08-03T02:41:00.001Z,71.60
2023-08-03T02:43:30.217Z,71.58
2023-08-03T02:45:58.026Z,71.81
2023-08-03T02:48:25.854Z,71.62
2023-08-03T02:50:53.574Z,71.61
2023-08-03T02:53:21.399Z,72.00
2023-08-03T02:55:49.193Z,71.75
2023-08-03T02:58:16.937Z,72.36
2023-08-03T03:00:46.086Z,72.04
2023-08-03T03:03:14.035Z,72.48
2023-08-03T03:05:41.847Z,72.56
2023-08-03T03:08:09.640Z,72.40
2023-08-03T03:10:37.517Z,72.36
2023-08-03T03:13:05.651Z,72.73
2023-08-03T03:15:33.569Z,72.70
2023-08-03T03:18:03.591Z,72.92
2023-08-03T03:20:31.487Z,72.69
2023-08-03T03:22:59.294Z,73.24
2023-08-03T03:25:27.054Z,73.27
2023-08-03T03:27:54.907Z,73.40
2023-08-03T03:30:22.646Z,73.41
2023-08-03T03:32:50.337Z,73.20
2023-08-03T03:35:19.412Z,73.25
2023-08-03T03:37:47.228Z,73.28
2023-08-03T03:40:15.429Z,73.82
2023-08-03T03:42:43.290Z,73.57
2023-08-03T03:45:11.325Z,73.67
2023-08-03T03:47:39.144Z,73.74
2023-08-03T03:50:07.832Z,73.96
2023-08-03T03:52:37.107Z,74.32
2023-08-03T03:55:05.212Z,74.13
2023-08-03T03:57:33.210Z,74.17
2023-08-03T04:00:02.385Z,74.62
2023-08-03T04:02:30.175Z,74.29
2023-08-03T04:04:57.955Z,74.64
2023-08-03T04:07:25.705Z,74.43
2023-08-03T04:09:54.812Z,74.66
2023-08-03T04:12:22.655Z,74.60
2023-08-03T04:14:50.514Z,74.92
2023-08-03T04:17:18.205Z,74.92
2023-08-03T04:19:45.993Z,75.19
2023-08-03T04:22:32.387Z,75.20
2023-08-03T04:25:08.762Z,75.22
2023-08-03T04:27:36.558Z,75.35
2023-08-03T04:30:04.744Z,75.33
2023-08-03T04:32:32.502Z,75.48
2023-08-03T04:35:18.860Z,75.57
2023-08-03T04:37:46.861Z,75.61
2023-08-03T04:40:16.188Z,75.58
2023-08-03T04:42:43.917Z,75.74
2023-08-03T04:45:12.053Z,75.80
2023-08-03T04:47:40.332Z,75.80
2023-08-03T04:50:08.975Z,75.95
2023-08-03T04:52:36.795Z,75.98
2023-08-03T04:55:05.538Z,75.90
2023-08-03T04:57:34.638Z,76.10
2023-08-03T05:00:02.531Z,76.22
2023-08-03T05:02:30.324Z,76.14
2023-08-03T05:04:58.074Z,76.33
2023-08-03T05:07:25.922Z,76.26
2023-08-03T05:09:53.667Z,76.46
2023-08-03T05:12:21.591Z,76.45
2023-08-03T05:14:50.764Z,76.44
2023-08-03T05:17:18.545Z,76.47
2023-08-03T05:19:46.247Z,76.58
2023-08-03T05:22:14.262Z,76.57
2023-08-03T05:24:42.030Z,76.67
2023-08-03T05:27:10.816Z,76.65
2023-08-03T05:29:38.719Z,76.47
2023-08-03T05:32:08.877Z,76.75
2023-08-03T05:34:55.235Z,76.82
2023-08-03T05:37:23.033Z,76.96
2023-08-03T05:39:50.790Z,76.92
2023-08-03T05:42:19.711Z,76.82
2023-08-03T05:44:47.681Z,76.95
2023-08-03T05:47:18.821Z,76.87
2023-08-03T05:49:46.860Z,77.00
2023-08-03T05:52:16.488Z,77.04
2023-08-03T05:54:48.633Z,77.05
2023-08-03T05:57:19.750Z,77.02
2023-08-03T05:59:48.966Z,77.14
2023-08-03T06:02:31.204Z,77.12
2023-08-03T06:04:59.062Z,77.19
2023-08-03T06:07:26.877Z,76.99
2023-08-03T06:09:54.778Z,77.18
2023-08-03T06:12:22.584Z,77.08
2023-08-03T06:14:50.351Z,77.02
2023-08-03T06:17:23.930Z,77.19
2023-08-03T06:19:51.970Z,76.99
2023-08-03T06:22:22.324Z,77.06
2023-08-03T06:24:51.752Z,77.15
2023-08-03T06:27:19.557Z,77.13
2023-08-03T06:29:47.401Z,77.03
2023-08-03T06:32:23.667Z,76.82
2023-08-03T06:34:52.842Z,76.95
2023-08-03T06:37:21.266Z,76.82
2023-08-03T06:39:50.963Z,76.85
2023-08-03T06:42:18.853Z,76.78
2023-08-03T06:44:46.830Z,76.85
2023-08-03T06:47:14.710Z,76.73
2023-08-03T06:50:04.628Z,76.75
2023-08-03T06:52:32.462Z,76.73
2023-08-03T06:55:02.400Z,76.66
2023-08-03T06:57:30.313Z,76.61
2023-08-03T06:59:59.638Z,76.57
2023-08-03T07:02:27.846Z,76.43
2023-08-03T07:04:55.694Z,76.36
2023-08-03T07:07:25.192Z,76.41
2023-08-03T07:09:52.982Z,76.44
2023-08-03T07:12:20.786Z,76.36
2023-08-03T07:14:48.751Z,76.31
2023-08-03T07:17:17.010Z,76.22
2023-08-03T07:19:45.001Z,76.18
2023-08-03T07:22:12.890Z,76.14
2023-08-03T07:24:42.035Z,76.10
2023-08-03T07:27:09.843Z,76.20
2023-08-03T07:29:37.580Z,76.11
2023-08-03T07:32:06.758Z,76.03
2023-08-03T07:34:34.752Z,75.98
2023-08-03T07:37:21.274Z,75.92
2023-08-03T07:39:50.408Z,76.04
2023-08-03T07:42:18.151Z,75.93
2023-08-03T07:45:04.690Z,75.79
2023-08-03T07:47:32.975Z,75.92
2023-08-03T07:50:01.556Z,75.81
2023-08-03T07:52:30.395Z,75.83
2023-08-03T07:55:18.058Z,75.74
2023-08-03T07:57:47.247Z,75.65
2023-08-03T08:00:15.905Z,75.62
2023-08-03T08:02:43.868Z,75.58
2023-08-03T08:05:11.834Z,75.51
2023-08-03T08:07:39.603Z,75.48
2023-08-03T08:10:08.340Z,75.53
2023-08-03T08:12:37.476Z,75.35
2023-08-03T08:15:05.848Z,75.42
2023-08-03T08:17:33.751Z,75.37
2023-08-03T08:20:02.340Z,75.31
2023-08-03T08:22:30.276Z,75.54
2023-08-03T08:24:58.296Z,75.42
2023-08-03T08:27:26.341Z,75.25
2023-08-03T08:29:55.531Z,75.46
2023-08-03T08:32:23.429Z,75.29
2023-08-03T08:34:51.317Z,75.31
2023-08-03T08:37:19.085Z,75.35
2023-08-03T08:39:46.890Z,75.30
2023-08-03T08:42:16.291Z,75.34
2023-08-03T08:44:44.265Z,75.14
2023-08-03T08:47:13.799Z,75.35
2023-08-03T08:49:42.666Z,75.31
2023-08-03T08:52:13.069Z,75.14
2023-08-03T08:57:12.590Z,75.15
2023-08-03T09:00:03.259Z,75.16
2023-08-03T09:02:32.409Z,75.20
2023-08-03T09:05:09.728Z,75.22
2023-08-03T09:07:37.698Z,75.12
2023-08-03T09:10:06.182Z,75.32
2023-08-03T09:12:34.304Z,75.11
2023-08-03T09:15:02.261Z,75.42
2023-08-03T09:17:30.217Z,75.25
2023-08-03T09:25:02.582Z,75.32
2023-08-03T09:30:01.913Z,75.40
2023-08-03T09:32:35.777Z,75.33
2023-08-03T09:35:17.620Z,75.42
2023-08-03T09:37:46.150Z,75.41
2023-08-03T09:40:17.068Z,75.93
2023-08-03T09:42:50.095Z,75.32
2023-08-03T09:47:52.339Z,75.53
2023-08-03T09:50:22.453Z,75.58
2023-08-03T09:52:54.845Z,75.64
2023-08-03T09:55:29.283Z,75.58
2023-08-03T09:58:02.517Z,75.87
2023-08-03T10:00:31.423Z,75.77
2023-08-03T10:03:05.790Z,75.76
2023-08-03T10:05:40.729Z,75.56
2023-08-03T10:08:12.371Z,75.77
2023-08-03T10:10:45.378Z,75.80
2023-08-03T10:13:13.466Z,76.04
2023-08-03T10:15:43.486Z,75.96
2023-08-03T10:18:12.366Z,75.89
2023-08-03T10:20:43.065Z,76.05
2023-08-03T10:23:16.203Z,75.89
2023-08-03T10:25:55.991Z,76.11
2023-08-03T10:28:24.838Z,76.02
2023-08-03T10:31:12.423Z,76.17
2023-08-03T10:34:16.843Z,76.19
2023-08-03T10:36:50.513Z,76.19
2023-08-03T10:39:52.389Z,76.39
2023-08-03T10:42:29.229Z,76.33
2023-08-03T10:45:27.600Z,76.36
2023-08-03T10:47:56.932Z,76.30
2023-08-03T10:50:59.506Z,76.29
2023-08-03T10:53:29.083Z,76.57
2023-08-03T10:56:08.577Z,76.42
2023-08-03T10:58:48.831Z,76.43
2023-08-03T11:01:22.370Z,76.58
2023-08-03T11:03:50.410Z,76.56
2023-08-03T11:06:18.739Z,76.53
2023-08-03T11:09:07.649Z,76.43
2023-08-03T11:11:35.662Z,76.50
2023-08-03T11:14:05.523Z,76.56
2023-08-03T11:16:34.222Z,76.80
2023-08-03T11:19:02.200Z,76.76
2023-08-03T11:21:30.143Z,76.74
2023-08-03T11:23:57.912Z,76.71
2023-08-03T11:26:45.718Z,76.89
2023-08-03T11:29:32.852Z,76.82
2023-08-03T11:32:00.755Z,76.73
2023-08-03T11:34:28.952Z,76.94
2023-08-03T11:36:57.360Z,76.90
2023-08-03T11:39:25.300Z,76.90
2023-08-03T11:41:57.598Z,76.98
2023-08-03T11:44:26.230Z,77.06
2023-08-03T11:47:04.697Z,76.97
2023-08-03T11:49:32.978Z,77.28
2023-08-03T11:52:01.901Z,77.04
2023-08-03T11:54:32.100Z,77.12
2023-08-03T11:57:23.825Z,77.05
2023-08-03T11:59:52.226Z,77.13
2023-08-03T12:02:41.950Z,77.03
2023-08-03T12:05:11.434Z,77.07
2023-08-03T12:08:05.976Z,77.18
2023-08-03T12:10:32.546Z,77.05
2023-08-03T12:13:03.000Z,77.12
2023-08-03T12:18:03.664Z,77.11
2023-08-03T12:20:50.645Z,77.13
2023-08-03T12:23:19.050Z,77.29
2023-08-03T12:25:46.835Z,77.38
2023-08-03T12:28:16.228Z,77.23
2023-08-03T12:30:44.066Z,77.23
2023-08-03T12:33:12.669Z,77.38
2023-08-03T12:35:40.508Z,77.33
2023-08-03T12:38:08.291Z,77.36
2023-08-03T12:40:36.177Z,77.35
2023-08-03T12:43:04.021Z,77.29
2023-08-03T12:45:33.201Z,77.33
2023-08-03T12:48:03.723Z,77.53
2023-08-03T12:50:46.209Z,77.36
2023-08-03T12:53:15.104Z,77.49
2023-08-03T12:55:42.918Z,77.43
2023-08-03T12:58:10.772Z,77.41
2023-08-03T13:00:40.199Z,77.49
2023-08-03T13:03:08.462Z,77.52
2023-08-03T13:05:38.746Z,77.66
2023-08-03T13:08:07.439Z,77.43
2023-08-03T13:10:35.278Z,77.50
2023-08-03T13:13:03.869Z,77.32
2023-08-03T13:15:31.772Z,77.54
2023-08-03T13:18:01.485Z,77.59
2023-08-03T13:20:29.491Z,77.50
2023-08-03T13:22:57.802Z,77.45
2023-08-03T13:25:26.169Z,77.43
2023-08-03T13:27:54.051Z,77.44
2023-08-03T13:30:22.134Z,77.52
2023-08-03T13:32:49.931Z,77.68
2023-08-03T13:35:37.746Z,77.65
2023-08-03T13:38:05.588Z,77.56
2023-08-03T13:40:33.371Z,77.66
2023-08-03T13:43:02.285Z,77.67
2023-08-03T13:45:30.095Z,77.74
2023-08-03T13:47:58.446Z,77.72
2023-08-03T13:50:26.427Z,77.70
2023-08-03T13:52:55.639Z,77.80
2023-08-03T13:55:23.376Z,77.86
2023-08-03T13:58:04.757Z,77.84
2023-08-03T14:00:46.530Z,77.73
2023-08-03T14:03:14.911Z,77.89
2023-08-03T14:09:12.057Z,77.94
2023-08-03T14:11:21.915Z,78.03
2023-08-03T14:18:51.207Z,78.05
2023-08-03T14:21:44.182Z,78.12
2023-08-03T14:24:08.273Z,78.03
2023-08-03T14:26:36.260Z,78.12
2023-08-03T14:29:04.870Z,78.13
2023-08-03T14:31:51.226Z,78.21
2023-08-03T14:34:18.997Z,78.21
2023-08-03T14:36:47.744Z,78.24
2023-08-03T14:39:17.816Z,78.30
2023-08-03T14:41:49.700Z,78.35
2023-08-03T14:44:21.446Z,78.36
2023-08-03T14:47:00.777Z,78.18
2023-08-03T14:54:29.461Z,78.48
2023-08-03T14:56:57.425Z,78.39
2023-08-03T14:59:25.295Z,78.47
2023-08-03T15:01:53.156Z,78.58
2023-08-03T15:04:21.107Z,78.56
2023-08-03T15:06:49.204Z,78.68
2023-08-03T15:09:37.172Z,78.61
2023-08-03T15:12:06.543Z,78.54
2023-08-03T15:14:34.864Z,78.79
2023-08-03T15:17:22.350Z,78.72
2023-08-03T15:19:51.239Z,78.87
2023-08-03T15:22:19.594Z,78.97
2023-08-03T15:24:50.790Z,79.03
2023-08-03T15:34:53.419Z,78.87
2023-08-03T15:37:22.453Z,79.00
2023-08-03T15:39:54.433Z,78.96
2023-08-03T15:42:29.729Z,79.19
2023-08-03T15:45:01.613Z,79.15
2023-08-03T15:48:09.056Z,79.08
2023-08-03T15:50:27.336Z,79.18
2023-08-03T15:53:22.788Z,79.27
2023-08-03T15:56:06.131Z,79.13
2023-08-03T15:58:34.198Z,79.30
2023-08-03T16:01:05.051Z,79.30
2023-08-03T16:03:33.299Z,79.16
2023-08-03T16:06:06.013Z,79.21
2023-08-03T16:08:33.978Z,79.24
2023-08-03T16:11:03.465Z,79.23
2023-08-03T16:13:33.110Z,79.39
2023-08-03T16:16:02.482Z,79.26
2023-08-03T16:18:30.562Z,79.27
2023-08-03T16:20:59.224Z,79.26
2023-08-03T16:23:27.058Z,79.25
2023-08-03T16:25:54.837Z,79.23
2023-08-03T16:28:22.698Z,79.25
2023-08-03T16:30:51.857Z,79.28
2023-08-03T16:36:17.138Z,79.30
2023-08-03T16:39:04.253Z,79.27
2023-08-03T16:41:32.282Z,79.06
2023-08-03T16:44:18.840Z,79.23
2023-08-03T16:46:48.147Z,79.22
2023-08-03T16:49:18.814Z,79.27
2023-08-03T16:51:46.731Z,79.21
2023-08-03T16:54:32.900Z,79.20
2023-08-03T16:57:01.257Z,79.11
2023-08-03T16:59:29.569Z,79.18
2023-08-03T17:01:58.719Z,79.15
2023-08-03T17:04:26.493Z,79.04
2023-08-03T17:06:54.940Z,79.25
2023-08-03T17:09:22.740Z,79.31
2023-08-03T17:11:50.522Z,79.04
2023-08-03T17:14:22.192Z,79.16
2023-08-03T17:16:52.020Z,79.28
2023-08-03T17:19:21.723Z,79.07
2023-08-03T17:21:50.394Z,79.16
2023-08-03T17:24:36.919Z,79.03
2023-08-03T17:27:05.585Z,79.16
2023-08-03T17:29:33.285Z,79.24
2023-08-03T17:32:01.113Z,79.08
2023-08-03T17:34:30.336Z,79.17
2023-08-03T17:36:58.149Z,79.26
2023-08-03T17:39:25.935Z,79.09
2023-08-03T17:41:53.886Z,79.25
2023-08-03T17:44:23.107Z,79.31
2023-08-03T17:46:51.484Z,79.18
2023-08-03T17:49:19.400Z,79.28
2023-08-03T17:51:48.629Z,79.21
2023-08-03T17:54:16.486Z,79.20
2023-08-03T17:56:45.188Z,79.18
2023-08-03T17:59:13.521Z,79.11
2023-08-03T18:01:41.331Z,79.36
2023-08-03T18:04:09.212Z,79.28
2023-08-03T18:06:37.058Z,79.46
2023-08-03T18:09:08.973Z,79.53
2023-08-03T18:11:36.741Z,79.21
2023-08-03T18:14:04.585Z,79.38
2023-08-03T18:16:32.534Z,79.38
2023-08-03T18:19:00.752Z,79.52
2023-08-03T18:21:28.975Z,79.57
2023-08-03T18:23:57.831Z,79.46
2023-08-03T18:26:27.446Z,79.40
2023-08-03T18:28:56.152Z,79.47
2023-08-03T18:31:42.606Z,79.52
2023-08-03T18:34:10.355Z,79.60
2023-08-03T18:36:38.502Z,79.56
2023-08-03T18:39:06.304Z,79.62
2023-08-03T18:41:35.387Z,79.57
2023-08-03T18:44:03.701Z,79.75
2023-08-03T18:46:31.508Z,79.56
2023-08-03T18:48:59.358Z,79.65
2023-08-03T18:51:27.091Z,79.71
2023-08-03T18:53:55.068Z,79.66
2023-08-03T18:56:24.308Z,79.62
2023-08-03T18:58:56.345Z,79.68
2023-08-03T19:01:42.775Z,79.78
2023-08-03T19:04:10.559Z,79.80
2023-08-03T19:06:38.267Z,79.82
2023-08-03T19:09:06.076Z,79.88
2023-08-03T19:11:33.861Z,79.69
2023-08-03T19:14:04.036Z,79.80
2023-08-03T19:19:04.638Z,79.99
2023-08-03T19:21:32.564Z,80.00
2023-08-03T19:24:00.348Z,79.90
2023-08-03T19:26:28.902Z,80.01
2023-08-03T19:28:56.646Z,79.98
2023-08-03T19:31:45.142Z,79.94
2023-08-03T19:34:13.153Z,79.95
2023-08-03T19:36:40.994Z,80.11
2023-08-03T19:39:08.762Z,80.06
2023-08-03T19:41:36.521Z,80.15
2023-08-03T19:44:04.382Z,80.06
2023-08-03T19:46:32.164Z,80.17
2023-08-03T19:49:01.340Z,80.10
2023-08-03T20:06:53.721Z,80.47
2023-08-03T20:09:21.699Z,80.40
2023-08-03T20:11:49.625Z,80.55
2023-08-03T20:14:37.029Z,80.54
2023-08-03T20:19:40.163Z,80.66
2023-08-03T20:22:08.229Z,80.64
2023-08-03T20:24:36.057Z,80.79
2023-08-03T20:27:07.083Z,80.65
2023-08-03T20:32:06.701Z,80.71
2023-08-03T20:34:35.106Z,80.78
2023-08-03T20:37:04.266Z,80.70
2023-08-03T20:39:35.357Z,80.78
2023-08-03T20:42:42.178Z,80.68
2023-08-03T20:49:53.289Z,80.88
2023-08-03T20:52:22.380Z,80.99
2023-08-03T20:54:50.451Z,80.91
2023-08-03T20:57:19.905Z,81.00
2023-08-03T20:59:48.066Z,81.04
2023-08-03T21:02:15.826Z,81.03
2023-08-03T21:07:17.275Z,81.15
2023-08-03T21:10:50.373Z,81.07
2023-08-03T21:12:34.372Z,81.18
2023-08-03T21:15:02.287Z,81.10
2023-08-03T21:17:32.516Z,81.18
2023-08-03T21:20:01.548Z,81.12
2023-08-03T21:22:29.471Z,81.24
2023-08-03T21:24:58.714Z,81.19
2023-08-03T21:27:26.545Z,81.21
2023-08-03T21:29:54.335Z,81.22
2023-08-03T21:32:22.418Z,81.27
2023-08-03T21:34:50.321Z,81.41
2023-08-03T21:37:18.134Z,81.33
2023-08-03T21:39:45.929Z,81.35
2023-08-03T21:42:15.071Z,81.34
2023-08-03T21:44:42.881Z,81.34
2023-08-03T21:47:11.549Z,81.48
2023-08-03T21:49:39.322Z,81.47
2023-08-03T21:52:08.000Z,81.45
2023-08-03T21:54:35.787Z,81.41
2023-08-03T21:57:03.527Z,81.55
2023-08-03T21:59:33.361Z,81.57
2023-08-03T22:02:01.509Z,81.58
2023-08-03T22:04:29.376Z,81.45
2023-08-03T22:06:57.109Z,81.57
2023-08-03T22:09:24.905Z,81.53
2023-08-03T22:11:52.997Z,81.53
2023-08-03T22:14:20.789Z,81.48
2023-08-03T22:16:49.982Z,81.66
2023-08-03T22:19:18.111Z,81.67
2023-08-03T22:21:50.973Z,81.77
2023-08-03T22:24:19.751Z,81.67
2023-08-03T22:26:47.485Z,81.70
2023-08-03T22:29:15.282Z,81.77
2023-08-03T22:31:43.087Z,81.83
2023-08-03T22:34:12.289Z,81.78
2023-08-03T22:36:40.067Z,81.77
2023-08-03T22:39:08.068Z,81.82
2023-08-03T22:41:35.793Z,81.75
2023-08-03T22:44:04.107Z,81.80
2023-08-03T22:46:31.968Z,81.77
2023-08-03T22:48:59.683Z,81.83
2023-08-03T22:51:29.660Z,82.04
2023-08-03T22:53:57.561Z,81.96
2023-08-03T22:56:25.426Z,81.98
2023-08-03T22:58:53.336Z,81.95
2023-08-03T23:01:22.326Z,81.98
2023-08-03T23:03:50.578Z,82.09
2023-08-03T23:06:21.274Z,82.06
2023-08-03T23:08:51.468Z,82.12
2023-08-03T23:11:19.380Z,82.14
2023-08-03T23:14:05.687Z,82.11
2023-08-03T23:16:34.002Z,82.16
2023-08-03T23:19:02.725Z,82.22
2023-08-03T23:21:30.577Z,82.11
2023-08-03T23:24:00.268Z,82.24
2023-08-03T23:26:28.895Z,82.23
2023-08-03T23:28:57.260Z,82.22
2023-08-03T23:31:26.365Z,82.38
2023-08-03T23:33:54.191Z,82.17
2023-08-03T23:36:22.107Z,82.11
2023-08-03T23:38:49.872Z,82.32
2023-08-03T23:41:19.602Z,82.22
2023-08-03T23:44:06.030Z,82.31
2023-08-03T23:46:33.888Z,82.39
2023-08-03T23:49:01.801Z,82.32
2023-08-03T23:51:31.384Z,82.34
2023-08-03T23:54:01.154Z,82.44
2023-08-03T23:56:32.945Z,82.38
2023-08-03T23:59:01.232Z,82.38
